Time;durP1;ratioP1;P1;durP2;ratioP2;P2;SDS_P1;SDS_P2;PMS_P1;PMS_P2;Temp;Humidity;BMP_temperature;BMP_pressure;BME280_temperature;BME280_humidity;BME280_pressure;Samples;Min_cycle;Max_cycle;Signal;HPM_P1;HPM_P2
2022/10/15 00:00:46;;;;;;;1.90;1.77;;;16.30;99.90;;;;;;5021903;28;20445;-75
2022/10/15 00:03:14;;;;;;;2.03;1.83;;;16.30;99.90;;;;;;5020436;28;20197;-72
2022/10/15 00:05:41;;;;;;;3.10;2.17;;;16.30;99.90;;;;;;5035394;28;20213;-75
2022/10/15 00:08:12;;;;;;;2.30;2.10;;;16.30;99.90;;;;;;5037213;28;20178;-74
2022/10/15 00:10:40;;;;;;;2.60;2.10;;;16.30;99.90;;;;;;5037316;28;20197;-76
2022/10/15 00:13:06;;;;;;;2.42;2.20;;;16.30;99.90;;;;;;5034895;28;20233;-74
2022/10/15 00:15:34;;;;;;;2.25;2.05;;;16.30;99.90;;;;;;5019960;28;20218;-74
2022/10/15 00:18:02;;;;;;;2.40;2.20;;;16.30;99.90;;;;;;5032433;28;20263;-75
2022/10/15 00:20:27;;;;;;;2.58;2.22;;;16.30;99.90;;;;;;5035890;28;20189;-74
2022/10/15 00:22:53;;;;;;;2.10;1.90;;;16.30;99.90;;;;;;5036983;28;20188;-74
2022/10/15 00:25:21;;;;;;;2.20;2.00;;;16.30;99.90;;;;;;5036176;28;20205;-75
2022/10/15 00:27:46;;;;;;;2.05;1.85;;;16.30;99.90;;;;;;5036270;28;20170;-74
2022/10/15 00:30:12;;;;;;;2.70;2.20;;;16.30;99.90;;;;;;5036835;28;20240;-74
2022/10/15 00:32:40;;;;;;;2.38;2.17;;;16.30;99.90;;;;;;5032711;28;20261;-75
2022/10/15 00:35:06;;;;;;;2.45;2.25;;;16.30;99.90;;;;;;5028500;28;20179;-74
2022/10/15 00:37:32;;;;;;;2.55;2.35;;;16.30;99.90;;;;;;5017325;28;20264;-74
2022/10/15 00:39:59;;;;;;;2.45;2.20;;;16.30;99.90;;;;;;5034488;28;20189;-73
2022/10/15 00:42:25;;;;;;;2.33;2.08;;;16.30;99.90;;;;;;5039701;28;20207;-73
2022/10/15 00:44:56;;;;;;;2.80;2.47;;;16.30;99.90;;;;;;5035774;28;20206;-74
2022/10/15 00:47:21;;;;;;;3.88;2.40;;;16.30;99.90;;;;;;5036749;28;20181;-75
2022/10/15 00:49:54;;;;;;;2.45;2.25;;;16.30;99.90;;;;;;5036426;28;20212;-74
2022/10/15 00:52:33;;;;;;;3.30;2.63;;;16.30;99.90;;;;;;5036636;28;20181;-73
2022/10/15 00:55:08;;;;;;;2.85;2.50;;;16.30;99.90;;;;;;5036975;28;20194;-74
2022/10/15 00:57:38;;;;;;;3.00;2.45;;;16.30;99.90;;;;;;5033993;28;20244;-74
2022/10/15 01:00:11;;;;;;;2.95;2.63;;;16.20;99.90;;;;;;5034453;28;20189;-73
2022/10/15 01:02:37;;;;;;;3.25;2.70;;;16.20;99.90;;;;;;5030938;28;20197;-72
2022/10/15 01:05:03;;;;;;;2.95;2.65;;;16.20;99.90;;;;;;5017998;28;20186;-75
2022/10/15 01:07:31;;;;;;;2.78;2.40;;;16.20;99.90;;;;;;5023112;28;20206;-73
2022/10/15 01:10:00;;;;;;;3.70;3.10;;;16.20;99.90;;;;;;5020406;28;20185;-76
2022/10/15 01:12:31;;;;;;;3.30;3.00;;;16.20;99.90;;;;;;5017231;28;20170;-74
2022/10/15 01:15:11;;;;;;;3.10;2.67;;;16.20;99.90;;;;;;5032356;28;20206;-74
2022/10/15 01:17:41;;;;;;;2.90;2.53;;;16.20;99.90;;;;;;5034091;28;20227;-74
2022/10/15 01:20:25;;;;;;;3.35;2.72;;;16.10;99.90;;;;;;5031044;28;20255;-71
2022/10/15 01:23:00;;;;;;;2.78;2.58;;;16.10;99.90;;;;;;5034532;28;20192;-74
2022/10/15 01:25:40;;;;;;;3.42;3.13;;;16.10;99.90;;;;;;5036165;28;20199;-75
2022/10/15 01:28:43;;;;;;;3.33;2.92;;;16.10;99.90;;;;;;5031967;28;20194;-75
2022/10/15 01:31:26;;;;;;;4.28;2.90;;;16.10;99.90;;;;;;5019781;28;20174;-74
2022/10/15 01:33:55;;;;;;;3.13;2.75;;;16.10;99.90;;;;;;5016660;28;20477;-74
2022/10/15 01:36:53;;;;;;;2.65;2.45;;;16.10;99.90;;;;;;5028382;28;20174;-74
2022/10/15 01:39:28;;;;;;;2.35;2.03;;;16.10;99.90;;;;;;5014422;28;20245;-75
2022/10/15 01:42:05;;;;;;;4.57;2.58;;;16.10;99.90;;;;;;5024549;28;20184;-74
2022/10/15 01:44:35;;;;;;;2.50;2.30;;;16.10;99.90;;;;;;5031294;28;20194;-74
2022/10/15 01:47:06;;;;;;;2.38;2.15;;;16.10;99.90;;;;;;5034176;28;20174;-74
2022/10/15 01:49:41;;;;;;;2.15;1.95;;;16.10;99.90;;;;;;5031206;28;20179;-75
2022/10/15 01:52:17;;;;;;;1.98;1.77;;;16.10;99.90;;;;;;5034390;28;20193;-72
2022/10/15 01:54:51;;;;;;;1.90;1.60;;;16.10;99.90;;;;;;5034048;28;20177;-75
2022/10/15 01:57:19;;;;;;;1.65;1.55;;;16.10;99.90;;;;;;5029746;28;20241;-75
2022/10/15 01:59:47;;;;;;;1.92;1.60;;;16.10;99.90;;;;;;5020506;28;20174;-75
2022/10/15 02:02:13;;;;;;;1.77;1.52;;;16.10;99.90;;;;;;5035879;28;20201;-74
2022/10/15 02:04:41;;;;;;;1.90;1.65;;;16.00;99.90;;;;;;5035467;28;20225;-75
2022/10/15 02:07:24;;;;;;;1.52;1.40;;;16.00;99.90;;;;;;5028850;28;20171;-75
2022/10/15 02:10:08;;;;;;;1.60;1.50;;;16.00;99.90;;;;;;5022521;28;20193;-76
2022/10/15 02:13:04;;;;;;;1.60;1.50;;;16.00;99.90;;;;;;5039481;28;20245;-74
2022/10/15 02:15:54;;;;;;;1.55;1.40;;;16.00;99.90;;;;;;5024837;28;20185;-75
2022/10/15 02:18:28;;;;;;;2.08;1.40;;;16.00;99.90;;;;;;5039319;28;20178;-74
2022/10/15 02:21:00;;;;;;;1.40;1.27;;;15.90;99.90;;;;;;5027254;28;20261;-75
2022/10/15 02:23:32;;;;;;;1.63;1.25;;;15.90;99.90;;;;;;5019755;28;20186;-75
2022/10/15 02:26:03;;;;;;;2.03;1.27;;;15.90;99.90;;;;;;5030626;28;20194;-75
2022/10/15 02:28:29;;;;;;;1.30;1.20;;;15.90;99.90;;;;;;5031412;28;20226;-74
2022/10/15 02:31:00;;;;;;;1.52;1.10;;;15.90;99.90;;;;;;5018085;28;20198;-74
2022/10/15 02:33:27;;;;;;;1.85;1.30;;;15.90;99.90;;;;;;5035556;28;20189;-72
2022/10/15 02:35:54;;;;;;;2.38;1.33;;;15.90;99.90;;;;;;5036697;28;20205;-74
2022/10/15 02:38:25;;;;;;;1.90;1.33;;;15.90;99.90;;;;;;5030173;28;20186;-75
2022/10/15 02:40:53;;;;;;;1.88;1.23;;;15.90;99.90;;;;;;5019411;28;20202;-78
2022/10/15 02:43:20;;;;;;;1.52;1.15;;;15.80;99.90;;;;;;5034505;28;20178;-77
2022/10/15 02:45:47;;;;;;;1.17;1.00;;;15.90;99.90;;;;;;5036054;28;20232;-75
2022/10/15 02:48:15;;;;;;;1.33;1.00;;;15.80;99.90;;;;;;5019842;28;20198;-73
2022/10/15 02:50:43;;;;;;;1.23;0.95;;;15.80;99.90;;;;;;5024831;28;20367;-76
2022/10/15 02:53:09;;;;;;;1.30;1.10;;;15.80;99.90;;;;;;5043611;28;20178;-69
2022/10/15 02:55:37;;;;;;;1.80;1.10;;;15.80;99.90;;;;;;5038677;28;20202;-75
2022/10/15 02:58:05;;;;;;;1.08;0.98;;;15.80;99.90;;;;;;5018956;28;20180;-76
2022/10/15 03:00:30;;;;;;;1.60;1.10;;;15.80;99.90;;;;;;5018251;28;20281;-76
2022/10/15 03:02:56;;;;;;;1.98;1.10;;;15.80;99.90;;;;;;5022604;28;20218;-73
2022/10/15 03:05:21;;;;;;;1.15;1.05;;;15.80;99.90;;;;;;5039035;28;20201;-75
2022/10/15 03:07:52;;;;;;;1.10;1.00;;;15.80;99.90;;;;;;5038457;28;20206;-77
2022/10/15 03:10:22;;;;;;;1.98;1.13;;;15.80;99.90;;;;;;5038582;28;20220;-76
2022/10/15 03:12:48;;;;;;;1.27;1.08;;;15.80;99.90;;;;;;5017704;28;20293;-76
2022/10/15 03:15:14;;;;;;;1.30;1.10;;;15.80;99.90;;;;;;5038411;28;20260;-75
2022/10/15 03:17:42;;;;;;;1.38;1.10;;;15.80;99.90;;;;;;5020138;28;20193;-75
2022/10/15 03:20:10;;;;;;;0.93;0.90;;;15.80;99.90;;;;;;5019963;28;20182;-75
2022/10/15 03:22:36;;;;;;;1.30;1.10;;;15.80;99.90;;;;;;5017620;28;20189;-75
2022/10/15 03:25:02;;;;;;;1.65;0.98;;;15.80;99.90;;;;;;5025704;28;20284;-75
2022/10/15 03:27:28;;;;;;;1.13;1.02;;;15.80;99.90;;;;;;5036486;28;20194;-69
2022/10/15 03:29:54;;;;;;;1.30;1.02;;;15.80;99.90;;;;;;5032858;28;20205;-74
2022/10/15 03:32:21;;;;;;;2.00;1.10;;;15.80;99.90;;;;;;5016676;28;20205;-75
2022/10/15 03:34:47;;;;;;;1.95;1.08;;;15.80;99.90;;;;;;5025338;28;20249;-75
2022/10/15 03:37:15;;;;;;;1.58;1.15;;;15.80;99.90;;;;;;5032834;28;20182;-74
2022/10/15 03:39:43;;;;;;;1.40;1.20;;;15.80;99.90;;;;;;5030557;28;20249;-76
2022/10/15 03:42:08;;;;;;;1.67;1.17;;;15.90;99.90;;;;;;5038904;28;20213;-74
2022/10/15 03:44:34;;;;;;;1.83;1.10;;;15.80;99.90;;;;;;5038618;28;20233;-75
2022/10/15 03:47:00;;;;;;;1.17;1.00;;;15.80;99.90;;;;;;5035327;28;20209;-75
2022/10/15 03:49:30;;;;;;;1.30;1.20;;;15.80;99.90;;;;;;5036146;28;20174;-75
2022/10/15 03:51:56;;;;;;;1.20;1.10;;;15.80;99.90;;;;;;5018439;28;20170;-75
2022/10/15 03:54:21;;;;;;;1.20;1.10;;;15.80;99.90;;;;;;5025867;28;20237;-75
2022/10/15 03:56:53;;;;;;;2.58;1.30;;;15.80;99.90;;;;;;5033465;28;20218;-75
2022/10/15 03:59:21;;;;;;;1.65;1.30;;;15.80;99.90;;;;;;5019717;28;20197;-75
2022/10/15 04:01:47;;;;;;;1.52;1.27;;;15.80;99.90;;;;;;5028839;28;20572;-75
2022/10/15 04:04:12;;;;;;;1.45;1.27;;;15.80;99.90;;;;;;5036557;28;20181;-75
2022/10/15 04:06:39;;;;;;;1.98;1.10;;;15.80;99.90;;;;;;5019723;28;20265;-76
2022/10/15 04:09:07;;;;;;;1.60;1.20;;;15.80;99.90;;;;;;5026069;28;20202;-75
2022/10/15 04:11:32;;;;;;;1.65;1.20;;;15.80;99.90;;;;;;5036119;28;20170;-75
2022/10/15 04:14:00;;;;;;;1.77;1.67;;;15.80;99.90;;;;;;5054813;28;20173;-74
2022/10/15 04:16:26;;;;;;;10.98;8.27;;;15.80;99.90;;;;;;5040523;28;20186;-74
2022/10/15 04:18:52;;;;;;;7.78;6.18;;;15.70;99.90;;;;;;5016308;28;20194;-74
2022/10/15 04:21:20;;;;;;;3.90;3.33;;;15.80;99.90;;;;;;5025299;28;20253;-74
2022/10/15 04:23:47;;;;;;;3.38;2.50;;;15.80;99.90;;;;;;5020763;28;20190;-74
2022/10/15 04:26:13;;;;;;;7.30;5.85;;;15.80;99.90;;;;;;5034034;28;20248;-71
2022/10/15 04:28:40;;;;;;;3.42;2.78;;;15.70;99.90;;;;;;5037587;28;20230;-68
2022/10/15 04:31:07;;;;;;;2.63;2.33;;;15.70;99.90;;;;;;5018632;28;20253;-74
2022/10/15 04:33:32;;;;;;;2.42;2.00;;;15.70;99.90;;;;;;5017476;28;20295;-74
2022/10/15 04:36:02;;;;;;;2.03;1.55;;;15.70;99.90;;;;;;5019224;28;20242;-75
2022/10/15 04:38:29;;;;;;;1.80;1.60;;;15.70;99.90;;;;;;5016831;28;20200;-76
2022/10/15 04:41:03;;;;;;;2.00;1.42;;;15.70;99.90;;;;;;5016094;28;20175;-75
2022/10/15 04:43:32;;;;;;;1.50;1.15;;;15.70;99.90;;;;;;5033763;28;20177;-75
2022/10/15 04:46:00;;;;;;;1.23;1.13;;;15.60;99.90;;;;;;5023294;28;20202;-75
2022/10/15 04:48:32;;;;;;;3.50;1.30;;;15.60;99.90;;;;;;5021524;28;20193;-75
2022/10/15 04:51:10;;;;;;;1.70;1.15;;;15.60;99.90;;;;;;5033658;28;20202;-75
2022/10/15 04:53:42;;;;;;;1.45;1.20;;;15.60;99.90;;;;;;5033086;28;20272;-74
2022/10/15 04:56:14;;;;;;;1.48;0.93;;;15.60;99.90;;;;;;5030707;28;20191;-76
2022/10/15 04:58:40;;;;;;;1.50;1.10;;;15.60;99.90;;;;;;5028906;28;20178;-74
2022/10/15 05:01:17;;;;;;;1.30;1.10;;;15.60;99.90;;;;;;5027325;28;20182;-76
2022/10/15 05:03:49;;;;;;;1.50;1.00;;;15.60;99.90;;;;;;5026791;28;20202;-76
2022/10/15 05:06:19;;;;;;;1.80;1.30;;;15.60;99.90;;;;;;5020468;28;20531;-75
2022/10/15 05:08:47;;;;;;;1.17;1.05;;;15.60;99.90;;;;;;5030185;28;20175;-74
2022/10/15 05:11:28;;;;;;;4.07;2.13;;;15.60;99.90;;;;;;5026117;28;20364;-75
2022/10/15 05:13:57;;;;;;;2.40;1.77;;;15.70;99.90;;;;;;5015958;28;20202;-74
2022/10/15 05:16:30;;;;;;;1.45;1.20;;;15.70;99.90;;;;;;5024933;28;20284;-75
2022/10/15 05:19:03;;;;;;;1.20;1.10;;;15.70;99.90;;;;;;5018861;28;20178;-75
2022/10/15 05:21:32;;;;;;;2.15;1.30;;;15.70;99.90;;;;;;5016829;28;20209;-75
2022/10/15 05:24:00;;;;;;;1.13;1.02;;;15.70;99.90;;;;;;5031302;28;20238;-75
2022/10/15 05:26:28;;;;;;;1.20;0.90;;;15.70;99.90;;;;;;5034274;28;20216;-75
2022/10/15 05:28:58;;;;;;;1.20;1.10;;;15.70;99.90;;;;;;5015771;28;20198;-75
2022/10/15 05:31:29;;;;;;;1.20;1.10;;;15.70;99.90;;;;;;5026477;28;20227;-75
2022/10/15 05:33:57;;;;;;;1.42;1.20;;;15.70;99.90;;;;;;5018431;28;20189;-75
2022/10/15 05:36:27;;;;;;;1.65;1.30;;;15.70;99.90;;;;;;5029348;28;20198;-75
2022/10/15 05:38:58;;;;;;;1.60;1.38;;;15.70;99.90;;;;;;5017038;28;20178;-74
2022/10/15 05:41:24;;;;;;;2.70;1.40;;;15.70;99.90;;;;;;5020516;28;20208;-74
2022/10/15 05:43:53;;;;;;;1.50;1.00;;;15.70;99.90;;;;;;5033435;28;20200;-73
2022/10/15 05:46:20;;;;;;;6.55;3.88;;;15.80;99.90;;;;;;5020972;28;20204;-73
2022/10/15 05:48:50;;;;;;;8.43;5.43;;;15.70;99.90;;;;;;5024099;28;20209;-73
2022/10/15 05:51:16;;;;;;;4.32;3.22;;;15.70;99.90;;;;;;5044533;28;20183;-75
2022/10/15 05:53:42;;;;;;;3.13;2.30;;;15.70;99.90;;;;;;5034023;28;20221;-71
2022/10/15 05:56:11;;;;;;;2.60;1.95;;;15.70;99.90;;;;;;5034064;28;20206;-73
2022/10/15 05:58:39;;;;;;;2.00;1.80;;;15.80;99.90;;;;;;5039400;28;20189;-73
2022/10/15 06:01:07;;;;;;;2.95;1.90;;;15.70;99.90;;;;;;5040781;28;20213;-72
2022/10/15 06:03:33;;;;;;;1.90;1.70;;;15.70;99.90;;;;;;5048844;28;20241;-74
2022/10/15 06:05:59;;;;;;;1.63;1.40;;;15.70;99.90;;;;;;5052147;28;20206;-72
2022/10/15 06:08:29;;;;;;;1.58;1.35;;;15.70;99.90;;;;;;5044615;28;20224;-72
2022/10/15 06:11:04;;;;;;;2.53;1.73;;;15.60;99.90;;;;;;5043296;28;20197;-73
2022/10/15 06:13:29;;;;;;;2.28;1.58;;;15.60;99.90;;;;;;5041408;28;20205;-71
2022/10/15 06:15:57;;;;;;;1.90;1.67;;;15.60;99.90;;;;;;5045667;28;20200;-74
2022/10/15 06:18:27;;;;;;;2.20;1.60;;;15.50;99.90;;;;;;5038577;28;20202;-71
2022/10/15 06:20:54;;;;;;;1.60;1.40;;;15.50;99.90;;;;;;5037622;28;20178;-71
2022/10/15 06:23:20;;;;;;;1.60;1.50;;;15.40;99.90;;;;;;5035153;28;20197;-72
2022/10/15 06:25:46;;;;;;;1.40;1.30;;;15.40;99.90;;;;;;5034813;28;20282;-71
2022/10/15 06:28:12;;;;;;;1.60;1.50;;;15.30;99.90;;;;;;5043738;28;20190;-73
2022/10/15 06:30:48;;;;;;;3.75;1.80;;;15.30;99.90;;;;;;5034726;28;20174;-71
2022/10/15 06:33:15;;;;;;;1.63;1.38;;;15.30;99.90;;;;;;5036783;28;20200;-73
2022/10/15 06:35:41;;;;;;;1.65;1.45;;;15.20;99.90;;;;;;5032115;28;20229;-73
2022/10/15 06:38:09;;;;;;;1.92;1.40;;;15.20;99.90;;;;;;5042163;28;20186;-73
2022/10/15 06:40:38;;;;;;;2.40;1.70;;;15.20;99.90;;;;;;5033734;28;20213;-73
2022/10/15 06:43:08;;;;;;;6.18;4.53;;;15.20;99.90;;;;;;5034100;28;20174;-73
2022/10/15 06:45:41;;;;;;;4.05;3.38;;;15.20;99.90;;;;;;5033230;28;20214;-73
2022/10/15 06:48:10;;;;;;;3.17;2.50;;;15.20;99.90;;;;;;5029828;28;20174;-73
2022/10/15 06:50:40;;;;;;;2.40;2.10;;;15.20;99.90;;;;;;5033745;28;20174;-82
2022/10/15 06:53:06;;;;;;;2.47;1.73;;;15.20;99.90;;;;;;5030371;28;20190;-82
2022/10/15 06:55:35;;;;;;;1.60;1.50;;;15.20;99.90;;;;;;5023862;28;20201;-79
2022/10/15 06:58:02;;;;;;;1.83;1.50;;;15.30;99.90;;;;;;5034712;28;20193;-81
2022/10/15 07:00:28;;;;;;;1.40;1.20;;;15.30;99.90;;;;;;5034524;28;20182;-82
2022/10/15 07:02:55;;;;;;;1.10;1.00;;;15.40;99.90;;;;;;5036628;28;20189;-72
2022/10/15 07:05:21;;;;;;;1.25;0.98;;;15.40;99.90;;;;;;5056868;28;20205;-74
2022/10/15 07:07:51;;;;;;;1.10;0.80;;;15.40;99.90;;;;;;5039548;28;20186;-75
2022/10/15 07:10:17;;;;;;;3.80;3.13;;;15.50;99.90;;;;;;5031314;28;20220;-74
2022/10/15 07:12:45;;;;;;;2.25;2.00;;;15.60;99.90;;;;;;5035518;28;20178;-76
2022/10/15 07:15:11;;;;;;;2.08;1.73;;;15.60;99.90;;;;;;5038018;28;20216;-75
2022/10/15 07:17:38;;;;;;;1.50;1.40;;;15.60;99.90;;;;;;5031770;28;20170;-74
2022/10/15 07:20:05;;;;;;;2.42;1.85;;;15.70;99.90;;;;;;5037336;28;20228;-74
2022/10/15 07:22:31;;;;;;;1.60;1.35;;;15.70;99.90;;;;;;5037843;28;20228;-74
2022/10/15 07:24:56;;;;;;;1.98;1.23;;;15.70;99.90;;;;;;5022630;28;20262;-74
2022/10/15 07:27:22;;;;;;;2.20;1.50;;;15.80;99.90;;;;;;5037331;28;20220;-75
2022/10/15 07:29:50;;;;;;;1.55;1.25;;;15.80;99.90;;;;;;5044115;28;20244;-75
2022/10/15 07:32:18;;;;;;;2.20;1.73;;;15.90;99.90;;;;;;5041631;28;20183;-74
2022/10/15 07:34:46;;;;;;;1.92;1.63;;;15.90;99.90;;;;;;5040743;28;20232;-75
2022/10/15 07:37:12;;;;;;;2.90;2.10;;;16.00;99.90;;;;;;5022658;28;20203;-78
2022/10/15 07:39:37;;;;;;;2.80;2.10;;;16.00;99.90;;;;;;5022447;28;20232;-74
2022/10/15 07:42:05;;;;;;;2.90;2.20;;;16.10;99.90;;;;;;5037084;28;20208;-74
2022/10/15 07:44:33;;;;;;;2.45;2.25;;;16.10;99.90;;;;;;5038467;28;20202;-76
2022/10/15 07:46:59;;;;;;;9.13;6.57;;;16.10;99.90;;;;;;5032749;28;20258;-75
2022/10/15 07:49:24;;;;;;;5.63;4.25;;;16.10;99.90;;;;;;5034938;28;20213;-78
2022/10/15 07:51:52;;;;;;;4.10;3.38;;;16.20;99.90;;;;;;5035011;28;20171;-76
2022/10/15 07:54:18;;;;;;;4.70;3.63;;;16.20;99.90;;;;;;5038408;28;20224;-77
2022/10/15 07:56:48;;;;;;;4.18;3.08;;;16.30;99.90;;;;;;5041627;28;20289;-78
2022/10/15 07:59:16;;;;;;;4.30;3.22;;;16.40;99.90;;;;;;5024067;28;21558;-77
2022/10/15 08:01:44;;;;;;;4.38;3.05;;;16.40;99.90;;;;;;5022191;28;20205;-77
2022/10/15 08:04:11;;;;;;;4.85;3.33;;;16.50;99.90;;;;;;5043057;28;20190;-69
2022/10/15 08:06:40;;;;;;;3.72;2.80;;;16.60;99.90;;;;;;5041497;28;20248;-73
2022/10/15 08:09:07;;;;;;;4.20;3.08;;;16.60;99.90;;;;;;5022079;28;20181;-75
2022/10/15 08:11:33;;;;;;;4.50;3.30;;;16.70;99.90;;;;;;5033067;28;20209;-76
2022/10/15 08:14:02;;;;;;;4.75;3.15;;;16.70;99.90;;;;;;5036261;28;20186;-76
2022/10/15 08:16:28;;;;;;;3.67;2.72;;;16.70;99.90;;;;;;5040703;28;20213;-77
2022/10/15 08:18:57;;;;;;;3.33;2.42;;;16.80;99.90;;;;;;5038594;28;20239;-77
2022/10/15 08:21:22;;;;;;;5.15;2.95;;;16.90;99.90;;;;;;5035075;28;20175;-76
2022/10/15 08:23:48;;;;;;;4.13;2.63;;;16.90;99.90;;;;;;5036344;28;20192;-76
2022/10/15 08:26:13;;;;;;;2.30;2.10;;;16.90;99.90;;;;;;5039139;28;20244;-76
2022/10/15 08:28:44;;;;;;;2.65;2.42;;;17.00;99.90;;;;;;5028667;28;20166;-76
2022/10/15 08:31:10;;;;;;;2.58;2.38;;;17.10;99.90;;;;;;5042955;28;20162;-74
2022/10/15 08:33:39;;;;;;;5.55;2.17;;;17.10;99.90;;;;;;5042546;28;20212;-76
2022/10/15 08:36:06;;;;;;;2.67;1.95;;;17.10;99.90;;;;;;5018066;28;20179;-77
2022/10/15 08:38:32;;;;;;;2.58;1.90;;;17.20;99.90;;;;;;5019085;28;20171;-75
2022/10/15 08:41:01;;;;;;;2.40;1.90;;;17.20;99.90;;;;;;5035680;28;20193;-75
2022/10/15 08:43:39;;;;;;;2.95;1.90;;;17.30;99.90;;;;;;5038067;28;20197;-76
2022/10/15 08:46:11;;;;;;;1.88;1.73;;;17.30;99.90;;;;;;5055015;28;20210;-73
2022/10/15 08:48:41;;;;;;;3.85;1.70;;;17.40;99.90;;;;;;5040939;28;20170;-76
2022/10/15 08:51:12;;;;;;;2.08;1.85;;;17.40;99.90;;;;;;5039590;28;20267;-74
2022/10/15 08:53:44;;;;;;;2.42;1.80;;;17.40;99.90;;;;;;5044294;28;20178;-75
2022/10/15 08:56:16;;;;;;;2.35;1.95;;;17.50;99.90;;;;;;5041081;28;20182;-76
2022/10/15 08:59:00;;;;;;;1.63;1.52;;;17.50;99.90;;;;;;5039331;28;20166;-76
2022/10/15 09:01:50;;;;;;;1.50;1.40;;;17.60;99.90;;;;;;5015711;28;20256;-75
2022/10/15 09:04:36;;;;;;;1.63;1.52;;;17.70;99.90;;;;;;5032686;28;20202;-76
2022/10/15 09:07:22;;;;;;;1.98;1.50;;;17.80;99.90;;;;;;5037183;28;20204;-75
2022/10/15 09:09:52;;;;;;;2.30;1.40;;;17.90;99.90;;;;;;5035483;28;20185;-76
2022/10/15 09:12:38;;;;;;;1.92;1.30;;;17.90;99.90;;;;;;5031480;28;20280;-71
2022/10/15 09:15:09;;;;;;;1.15;1.05;;;18.00;99.90;;;;;;5020727;28;20170;-76
2022/10/15 09:17:38;;;;;;;1.02;0.93;;;18.10;99.90;;;;;;5034106;28;20178;-75
2022/10/15 09:20:08;;;;;;;1.58;0.95;;;18.10;99.90;;;;;;5017181;28;20190;-75
2022/10/15 09:22:34;;;;;;;1.02;0.93;;;18.10;99.90;;;;;;5029900;28;20186;-74
2022/10/15 09:25:13;;;;;;;1.27;0.90;;;18.20;99.90;;;;;;5033288;28;20224;-74
2022/10/15 09:27:39;;;;;;;1.67;1.00;;;18.30;99.90;;;;;;5033506;28;20189;-74
2022/10/15 09:30:10;;;;;;;0.93;0.82;;;18.40;99.90;;;;;;5034569;28;20170;-75
2022/10/15 09:33:04;;;;;;;1.00;0.70;;;18.60;99.90;;;;;;5030637;28;20201;-74
2022/10/15 09:36:05;;;;;;;0.95;0.80;;;19.00;99.90;;;;;;5009699;28;20194;-74
2022/10/15 09:38:58;;;;;;;1.08;0.80;;;19.50;99.90;;;;;;5024379;28;20263;-74
2022/10/15 09:41:43;;;;;;;1.00;0.90;;;19.90;99.90;;;;;;5016412;28;20166;-74
2022/10/15 09:44:13;;;;;;;0.63;0.63;;;20.10;99.90;;;;;;5035244;28;20192;-73
2022/10/15 09:46:49;;;;;;;1.92;0.63;;;20.10;99.90;;;;;;5032291;28;20198;-74
2022/10/15 09:49:25;;;;;;;2.08;0.68;;;20.20;99.90;;;;;;5033745;28;20189;-75
2022/10/15 09:52:00;;;;;;;1.25;0.68;;;20.20;99.90;;;;;;5035063;28;20201;-76
2022/10/15 09:54:35;;;;;;;0.88;0.70;;;20.20;99.90;;;;;;5034584;28;20170;-74
2022/10/15 09:57:00;;;;;;;0.68;0.50;;;20.10;99.90;;;;;;5043512;28;20212;-74
2022/10/15 09:59:26;;;;;;;1.38;0.63;;;20.00;99.90;;;;;;5033336;28;20182;-72
2022/10/15 10:02:01;;;;;;;1.42;0.50;;;19.90;99.90;;;;;;5033932;28;20221;-74
2022/10/15 10:04:35;;;;;;;0.82;0.52;;;19.90;99.90;;;;;;5033990;28;20201;-73
2022/10/15 10:07:06;;;;;;;0.70;0.52;;;19.80;99.90;;;;;;5032622;28;20188;-74
2022/10/15 10:09:52;;;;;;;0.77;0.60;;;19.80;99.90;;;;;;5037790;28;20178;-74
2022/10/15 10:12:33;;;;;;;2.05;0.40;;;19.80;99.90;;;;;;5034289;28;20265;-74
2022/10/15 10:15:02;;;;;;;1.08;0.60;;;19.70;99.90;;;;;;5033143;28;20253;-74
2022/10/15 10:17:29;;;;;;;0.68;0.50;;;19.80;99.90;;;;;;5033510;28;20193;-73
2022/10/15 10:20:18;;;;;;;0.47;0.47;;;19.80;99.90;;;;;;5028105;28;20172;-72
2022/10/15 10:22:58;;;;;;;0.77;0.35;;;19.80;99.90;;;;;;5035399;28;20208;-74
2022/10/15 10:25:30;;;;;;;0.40;0.40;;;19.90;99.90;;;;;;5033578;28;20190;-75
2022/10/15 10:28:02;;;;;;;0.40;0.30;;;20.10;99.90;;;;;;5039029;28;20197;-69
2022/10/15 10:30:46;;;;;;;0.20;0.20;;;20.40;99.90;;;;;;5042824;28;20202;-75
2022/10/15 10:33:20;;;;;;;0.82;0.40;;;20.70;99.90;;;;;;5022913;28;20185;-75
2022/10/15 10:35:49;;;;;;;0.20;0.20;;;21.10;99.90;;;;;;5036347;28;20188;-74
2022/10/15 10:38:28;;;;;;;0.10;0.10;;;21.30;99.90;;;;;;5039461;28;20174;-75
2022/10/15 10:41:10;;;;;;;0.20;0.20;;;21.60;99.90;;;;;;5038790;28;20174;-77
2022/10/15 10:43:38;;;;;;;0.20;0.20;;;22.00;99.90;;;;;;5030503;28;20198;-74
2022/10/15 10:46:13;;;;;;;0.22;0.20;;;22.20;99.90;;;;;;5038935;28;20271;-77
2022/10/15 10:48:48;;;;;;;0.20;0.17;;;22.40;99.90;;;;;;5019867;28;20196;-73
2022/10/15 10:51:23;;;;;;;0.35;0.22;;;22.50;99.90;;;;;;5039756;28;20204;-75
2022/10/15 10:53:52;;;;;;;0.28;0.28;;;22.70;99.90;;;;;;5041186;28;20170;-73
2022/10/15 10:56:34;;;;;;;0.20;0.17;;;22.80;99.90;;;;;;5031424;28;20211;-76
2022/10/15 10:59:21;;;;;;;0.35;0.30;;;23.00;99.90;;;;;;5034067;28;20205;-77
2022/10/15 11:01:47;;;;;;;0.73;0.20;;;23.00;99.90;;;;;;5049590;28;20232;-77
2022/10/15 11:04:26;;;;;;;0.38;0.30;;;23.00;99.90;;;;;;5029526;28;20296;-74
2022/10/15 11:06:52;;;;;;;0.32;0.30;;;22.90;99.90;;;;;;5040112;28;20229;-75
2022/10/15 11:09:26;;;;;;;0.65;0.20;;;22.90;99.90;;;;;;5040871;28;20178;-71
2022/10/15 11:12:19;;;;;;;0.20;0.20;;;22.90;99.90;;;;;;5052537;28;20173;-72
2022/10/15 11:14:59;;;;;;;0.40;0.30;;;22.80;99.90;;;;;;5050554;28;20295;-75
2022/10/15 11:17:46;;;;;;;0.20;0.20;;;22.70;99.90;;;;;;5042424;28;20269;-74
2022/10/15 11:20:58;;;;;;;0.50;0.30;;;22.70;99.90;;;;;;5033048;28;20171;-78
2022/10/15 11:23:32;;;;;;;0.20;0.20;;;22.60;99.90;;;;;;5023011;28;20182;-74
2022/10/15 11:26:23;;;;;;;0.20;0.20;;;22.60;99.90;;;;;;5047123;28;20267;-74
2022/10/15 11:29:09;;;;;;;0.43;0.20;;;22.60;99.90;;;;;;5043919;28;20198;-74
2022/10/15 11:31:44;;;;;;;0.22;0.20;;;22.50;99.90;;;;;;5038604;28;20192;-75
2022/10/15 11:34:32;;;;;;;0.38;0.28;;;22.30;99.90;;;;;;5029626;28;20177;-75
2022/10/15 11:36:57;;;;;;;0.50;0.10;;;22.30;99.90;;;;;;5038970;28;20201;-76
2022/10/15 11:40:00;;;;;;;0.15;0.13;;;22.20;99.90;;;;;;5042080;28;20236;-75
2022/10/15 11:42:31;;;;;;;0.30;0.20;;;22.10;99.90;;;;;;5040090;28;20477;-74
2022/10/15 11:45:42;;;;;;;1.65;0.22;;;22.00;99.90;;;;;;5039362;28;20245;-75
2022/10/15 11:48:38;;;;;;;0.22;0.20;;;22.00;99.90;;;;;;5044650;28;20213;-75
2022/10/15 11:51:18;;;;;;;0.63;0.50;;;21.90;99.90;;;;;;5055524;28;20203;-75
2022/10/15 11:54:05;;;;;;;0.20;0.20;;;21.90;99.90;;;;;;5035369;28;20213;-75
2022/10/15 11:56:38;;;;;;;0.20;0.20;;;21.90;99.90;;;;;;5043258;28;20201;-77
2022/10/15 11:59:42;;;;;;;1.38;0.20;;;21.80;99.90;;;;;;5044529;28;20213;-73
2022/10/15 12:02:22;;;;;;;0.43;0.20;;;21.80;99.90;;;;;;5042246;28;20200;-76
2022/10/15 12:04:52;;;;;;;0.35;0.20;;;21.80;99.90;;;;;;5023782;28;20230;-75
2022/10/15 12:07:43;;;;;;;0.70;0.20;;;21.70;99.90;;;;;;5046061;28;20193;-75
2022/10/15 12:10:26;;;;;;;0.10;0.10;;;21.80;99.90;;;;;;5044694;28;20174;-72
2022/10/15 12:13:07;;;;;;;0.30;0.30;;;21.80;99.90;;;;;;5041337;28;20199;-73
2022/10/15 12:15:53;;;;;;;0.50;0.28;;;21.90;99.90;;;;;;5041313;28;20221;-75
2022/10/15 12:18:24;;;;;;;0.28;0.20;;;22.00;99.90;;;;;;5043141;28;20186;-73
2022/10/15 12:20:57;;;;;;;0.30;0.20;;;22.00;99.90;;;;;;5041523;28;20256;-75
2022/10/15 12:23:42;;;;;;;0.28;0.20;;;22.10;99.90;;;;;;5038515;28;20174;-76
2022/10/15 12:26:25;;;;;;;0.10;0.10;;;22.10;99.90;;;;;;5038366;28;20198;-75
2022/10/15 12:28:56;;;;;;;0.85;0.30;;;22.10;99.90;;;;;;5037098;28;20204;-71
2022/10/15 12:31:41;;;;;;;0.65;0.30;;;22.20;99.90;;;;;;5048368;28;20182;-74
2022/10/15 12:34:23;;;;;;;0.70;0.50;;;22.20;99.90;;;;;;5052820;28;20167;-75
2022/10/15 12:37:08;;;;;;;0.63;0.60;;;22.30;99.90;;;;;;5048798;28;20192;-76
2022/10/15 12:39:39;;;;;;;0.70;0.50;;;22.40;99.90;;;;;;5037700;28;20387;-76
2022/10/15 12:42:16;;;;;;;0.70;0.52;;;22.40;99.90;;;;;;5040913;28;20300;-76
2022/10/15 12:44:47;;;;;;;0.63;0.55;;;22.40;99.90;;;;;;5042220;28;20170;-76
2022/10/15 12:47:13;;;;;;;0.38;0.30;;;22.40;99.90;;;;;;5041174;28;20202;-76
2022/10/15 12:49:41;;;;;;;0.30;0.20;;;22.40;99.90;;;;;;5047901;28;20201;-75
2022/10/15 12:52:47;;;;;;;0.43;0.40;;;22.50;99.90;;;;;;5039980;28;20206;-75
2022/10/15 12:55:27;;;;;;;0.40;0.20;;;22.50;99.90;;;;;;5025281;28;20174;-74
2022/10/15 12:58:00;;;;;;;0.45;0.20;;;22.40;99.90;;;;;;5049275;28;20177;-72
2022/10/15 13:00:25;;;;;;;0.30;0.20;;;22.40;99.90;;;;;;5045115;28;20169;-72
2022/10/15 13:03:00;;;;;;;0.40;0.20;;;22.40;99.90;;;;;;5047205;28;20189;-74
2022/10/15 13:05:35;;;;;;;0.85;0.40;;;22.40;99.90;;;;;;5041252;28;20190;-77
2022/10/15 13:08:08;;;;;;;0.30;0.20;;;22.40;99.90;;;;;;5045379;28;20201;-74
2022/10/15 13:10:38;;;;;;;0.22;0.20;;;22.40;99.90;;;;;;5029915;28;20170;-74
2022/10/15 13:13:11;;;;;;;0.82;0.17;;;22.50;99.90;;;;;;5022186;28;20171;-73